createdAt,value
2018-02-05T00:01:18.331Z,-3.80
2018-02-05T00:03:47.758Z,-3.80
2018-02-05T00:06:18.918Z,-3.80
2018-02-05T00:08:48.204Z,-3.80
2018-02-05T00:11:21.881Z,-3.80
2018-02-05T00:13:51.707Z,-3.80
2018-02-05T00:16:39.033Z,-3.90
2018-02-05T00:19:20.422Z,-3.90
2018-02-05T00:22:03.520Z,-4.00
2018-02-05T00:24:36.384Z,-4.00
2018-02-05T00:27:27.437Z,-4.10
2018-02-05T00:30:02.868Z,-4.10
2018-02-05T00:32:51.578Z,-4.10
2018-02-05T00:35:22.163Z,-4.10
2018-02-05T00:37:51.770Z,-4.10
2018-02-05T00:40:21.643Z,-4.20
2018-02-05T00:42:51.660Z,-4.20
2018-02-05T00:45:22.009Z,-4.20
2018-02-05T00:47:51.361Z,-4.20
2018-02-05T00:50:21.051Z,-4.20
2018-02-05T00:52:50.563Z,-4.30
2018-02-05T00:55:20.209Z,-4.30
2018-02-05T00:57:50.273Z,-4.30
2018-02-05T01:00:20.045Z,-4.40
2018-02-05T01:02:49.407Z,-4.40
2018-02-05T01:05:18.923Z,-4.40
2018-02-05T01:07:48.224Z,-4.30
2018-02-05T01:10:17.586Z,-4.40
2018-02-05T01:12:47.204Z,-4.40
2018-02-05T01:15:16.828Z,-4.50
2018-02-05T01:17:45.981Z,-4.50
2018-02-05T01:20:15.507Z,-4.50
2018-02-05T01:22:44.687Z,-4.60
2018-02-05T01:25:14.793Z,-4.50
2018-02-05T01:27:45.472Z,-4.50
2018-02-05T01:30:15.077Z,-4.60
2018-02-05T01:32:46.525Z,-4.60
2018-02-05T01:35:16.414Z,-4.70
2018-02-05T01:37:46.481Z,-4.70
2018-02-05T01:40:15.671Z,-4.60
2018-02-05T01:42:46.096Z,-4.60
2018-02-05T01:45:15.449Z,-4.50
2018-02-05T01:47:44.626Z,-4.50
2018-02-05T01:50:14.274Z,-4.40
2018-02-05T01:52:44.177Z,-4.70
2018-02-05T01:55:13.679Z,-4.70
2018-02-05T01:57:43.722Z,-4.70
2018-02-05T02:00:13.299Z,-4.80
2018-02-05T02:02:43.130Z,-4.80
2018-02-05T02:05:13.062Z,-4.70
2018-02-05T02:07:42.524Z,-4.80
2018-02-05T02:10:12.282Z,-4.80
2018-02-05T02:12:42.276Z,-4.60
2018-02-05T02:15:11.742Z,-4.50
2018-02-05T02:17:41.324Z,-4.60
2018-02-05T02:20:11.032Z,-4.60
2018-02-05T02:22:40.363Z,-4.50
2018-02-05T02:25:10.679Z,-4.70
2018-02-05T02:27:40.995Z,-4.60
2018-02-05T02:30:10.311Z,-4.70
2018-02-05T02:32:39.715Z,-4.60
2018-02-05T02:35:09.568Z,-4.70
2018-02-05T02:37:38.933Z,-4.70
2018-02-05T02:40:09.948Z,-4.50
2018-02-05T02:42:41.360Z,-4.30
2018-02-05T02:45:10.797Z,-4.40
2018-02-05T02:47:40.373Z,-4.10
2018-02-05T02:50:10.149Z,-4.10
2018-02-05T02:52:39.640Z,-4.20
2018-02-05T02:55:10.565Z,-4.10
2018-02-05T02:57:40.643Z,-4.10
2018-02-05T03:00:10.136Z,-4.10
2018-02-05T03:02:39.691Z,-4.20
2018-02-05T03:05:11.292Z,-4.10
2018-02-05T03:07:40.913Z,-4.10
2018-02-05T03:10:10.633Z,-4.00
2018-02-05T03:12:40.553Z,-4.00
2018-02-05T03:15:10.097Z,-4.00
2018-02-05T03:17:39.593Z,-4.10
2018-02-05T03:20:09.655Z,-4.00
2018-02-05T03:22:39.083Z,-4.20
2018-02-05T03:25:08.303Z,-4.40
2018-02-05T03:27:37.821Z,-4.50
2018-02-05T03:30:07.026Z,-4.60
2018-02-05T03:32:36.340Z,-4.70
2018-02-05T03:35:06.121Z,-4.70
2018-02-05T03:37:35.441Z,-4.60
2018-02-05T03:40:05.503Z,-4.70
2018-02-05T03:42:35.089Z,-4.80
2018-02-05T03:45:04.385Z,-4.80
2018-02-05T03:47:33.866Z,-4.80
2018-02-05T03:50:03.788Z,-4.90
2018-02-05T03:52:34.073Z,-4.90
2018-02-05T03:55:03.640Z,-4.90
2018-02-05T03:57:33.355Z,-4.90
2018-02-05T04:00:02.822Z,-4.90
2018-02-05T04:02:32.324Z,-5.00
2018-02-05T04:05:02.167Z,-5.00
2018-02-05T04:07:32.680Z,-5.00
2018-02-05T04:10:02.202Z,-5.10
2018-02-05T04:12:32.075Z,-5.10
2018-02-05T04:15:01.382Z,-5.10
2018-02-05T04:17:30.780Z,-5.00
2018-02-05T04:20:01.071Z,-5.10
2018-02-05T04:22:32.189Z,-5.10
2018-02-05T04:25:02.222Z,-5.00
2018-02-05T04:27:40.464Z,-5.00
2018-02-05T04:30:12.239Z,-5.00
2018-02-05T04:32:42.373Z,-5.00
2018-02-05T04:35:11.806Z,-5.10
2018-02-05T04:37:41.038Z,-5.00
2018-02-05T04:40:10.697Z,-5.10
2018-02-05T04:42:40.006Z,-5.30
2018-02-05T04:45:09.526Z,-5.30
2018-02-05T04:47:39.136Z,-5.30
2018-02-05T04:50:08.831Z,-5.20
2018-02-05T04:52:38.221Z,-5.00
2018-02-05T04:55:08.481Z,-4.90
2018-02-05T04:57:37.590Z,-4.90
2018-02-05T05:00:07.542Z,-5.00
2018-02-05T05:02:37.344Z,-5.00
2018-02-05T05:05:06.767Z,-5.00
2018-02-05T05:07:36.468Z,-5.10
2018-02-05T05:10:06.439Z,-5.10
2018-02-05T05:12:35.839Z,-5.10
2018-02-05T05:15:06.233Z,-5.00
2018-02-05T05:17:36.220Z,-5.00
2018-02-05T05:20:05.816Z,-5.10
2018-02-05T05:22:35.886Z,-5.40
2018-02-05T05:25:05.480Z,-5.40
2018-02-05T05:27:34.622Z,-5.40
2018-02-05T05:30:04.273Z,-5.30
2018-02-05T05:32:33.438Z,-5.10
2018-02-05T05:35:02.550Z,-5.00
2018-02-05T05:37:31.861Z,-5.10
2018-02-05T05:40:01.158Z,-5.20
2018-02-05T05:42:31.064Z,-5.30
2018-02-05T05:45:00.198Z,-5.30
2018-02-05T05:47:29.732Z,-5.30
2018-02-05T05:49:59.946Z,-5.30
2018-02-05T05:52:30.142Z,-5.50
2018-02-05T05:54:59.851Z,-5.50
2018-02-05T05:57:30.223Z,-5.40
2018-02-05T06:00:00.294Z,-5.50
2018-02-05T06:02:30.297Z,-5.50
2018-02-05T06:04:59.898Z,-5.50
2018-02-05T06:07:29.074Z,-5.50
2018-02-05T06:10:06.625Z,-5.60
2018-02-05T06:12:36.425Z,-5.70
2018-02-05T06:15:05.634Z,-5.60
2018-02-05T06:17:34.889Z,-5.60
2018-02-05T06:20:14.116Z,-5.70
2018-02-05T06:22:43.484Z,-5.70
2018-02-05T06:25:13.017Z,-5.70
2018-02-05T06:27:45.909Z,-5.70
2018-02-05T06:30:31.665Z,-5.60
2018-02-05T06:33:01.793Z,-5.60
2018-02-05T06:35:38.383Z,-5.60
2018-02-05T06:38:09.896Z,-5.60
2018-02-05T06:44:54.913Z,-5.60
2018-02-05T06:47:24.089Z,-5.60
2018-02-05T06:50:08.661Z,-5.60
2018-02-05T06:53:51.667Z,-5.60
2018-02-05T06:56:24.528Z,-5.40
2018-02-05T06:58:55.620Z,-5.40
2018-02-05T07:01:25.896Z,-5.60
2018-02-05T07:03:55.391Z,-5.50
2018-02-05T07:06:45.694Z,-5.40
2018-02-05T07:09:19.103Z,-5.30
2018-02-05T07:11:51.790Z,-5.50
2018-02-05T07:14:22.598Z,-5.40
2018-02-05T07:16:52.718Z,-5.10
2018-02-05T07:19:29.806Z,-5.20
2018-02-05T07:22:06.786Z,-5.00
2018-02-05T07:25:18.690Z,-4.90
2018-02-05T07:31:15.480Z,-4.70
2018-02-05T07:33:47.319Z,-4.40
2018-02-05T07:36:58.297Z,-4.00
2018-02-05T07:39:30.945Z,-3.80
2018-02-05T07:42:01.423Z,-3.50
2018-02-05T07:44:31.143Z,-3.30
2018-02-05T07:47:00.786Z,-3.20
2018-02-05T07:49:37.206Z,-3.00
2018-02-05T07:52:07.160Z,-2.70
2018-02-05T07:54:46.000Z,-3.20
2018-02-05T07:57:20.029Z,-4.10
2018-02-05T07:59:54.393Z,-4.10
2018-02-05T08:02:24.596Z,-4.10
2018-02-05T08:04:55.746Z,-4.30
2018-02-05T08:07:30.241Z,-4.20
2018-02-05T08:10:01.290Z,-4.10
2018-02-05T08:12:31.438Z,-4.10
2018-02-05T08:15:14.572Z,-4.10
2018-02-05T08:17:49.080Z,-4.60
2018-02-05T08:20:19.660Z,-4.50
2018-02-05T08:22:52.680Z,-4.60
2018-02-05T08:25:24.552Z,-4.50
2018-02-05T08:34:47.642Z,-4.10
2018-02-05T08:37:20.121Z,-4.60
2018-02-05T08:39:52.439Z,-4.60
2018-02-05T08:42:23.808Z,-4.50
2018-02-05T08:44:53.297Z,-4.60
2018-02-05T08:47:29.643Z,-4.50
2018-02-05T08:49:59.136Z,-4.50
2018-02-05T08:52:30.903Z,-4.30
2018-02-05T08:55:07.883Z,-4.30
2018-02-05T09:00:45.454Z,-4.20
2018-02-05T09:03:49.364Z,-4.10
2018-02-05T09:06:23.306Z,-4.00
2018-02-05T09:08:53.892Z,-3.80
2018-02-05T09:11:27.109Z,-4.00
2018-02-05T09:14:02.247Z,-4.00
2018-02-05T09:16:44.192Z,-3.60
2018-02-05T09:19:15.053Z,-3.60
2018-02-05T09:21:46.682Z,-3.30
2018-02-05T09:24:28.911Z,-3.30
2018-02-05T09:26:59.801Z,-3.40
2018-02-05T09:32:47.620Z,-3.60
2018-02-05T09:35:22.234Z,-3.30
2018-02-05T09:38:00.904Z,-3.20
2018-02-05T09:40:31.932Z,-3.20
2018-02-05T09:43:03.066Z,-3.30
2018-02-05T09:45:33.194Z,-3.30
2018-02-05T09:48:04.155Z,-3.00
2018-02-05T09:50:33.896Z,-2.90
2018-02-05T09:53:03.506Z,-2.90
2018-02-05T09:55:33.941Z,-3.00
2018-02-05T09:58:03.850Z,-3.10
2018-02-05T10:00:33.606Z,-2.40
2018-02-05T10:03:05.015Z,-1.70
2018-02-05T10:05:36.654Z,-1.70
2018-02-05T10:08:06.862Z,-2.00
2018-02-05T10:10:36.274Z,-2.30
2018-02-05T10:13:05.732Z,-1.70
2018-02-05T10:16:04.292Z,-0.90
2018-02-05T10:18:34.469Z,-1.50
2018-02-05T10:21:12.211Z,-1.20
2018-02-05T10:24:00.754Z,-0.90
2018-02-05T10:29:41.817Z,0.80
2018-02-05T10:32:12.387Z,0.80
2018-02-05T10:34:43.397Z,1.50
2018-02-05T10:37:14.526Z,2.10
2018-02-05T10:39:45.630Z,2.10
2018-02-05T10:42:15.577Z,2.70
2018-02-05T10:44:49.658Z,3.40
2018-02-05T10:47:21.154Z,3.60
2018-02-05T10:49:51.728Z,2.40
2018-02-05T10:52:25.032Z,0.20
2018-02-05T10:54:56.842Z,0.20
2018-02-05T11:00:49.964Z,0.40
2018-02-05T11:03:21.848Z,0.40
2018-02-05T11:06:01.589Z,0.40
2018-02-05T11:08:54.333Z,0.40
2018-02-05T11:11:32.004Z,-0.50
2018-02-05T11:14:12.867Z,-0.10
2018-02-05T11:16:44.434Z,-0.10
2018-02-05T11:19:18.243Z,0.00
2018-02-05T11:22:06.392Z,0.80
2018-02-05T11:24:42.220Z,-0.50
2018-02-05T11:27:13.969Z,-0.70
2018-02-05T11:30:42.287Z,-0.70
2018-02-05T11:33:43.574Z,0.00
2018-02-05T11:36:19.081Z,0.60
2018-02-05T11:38:53.733Z,0.40
2018-02-05T11:41:26.231Z,0.70
2018-02-05T11:43:56.349Z,2.00
2018-02-05T11:46:27.908Z,1.80
2018-02-05T11:49:01.971Z,2.60
2018-02-05T12:14:51.569Z,0.60
2018-02-05T12:17:54.399Z,0.50
2018-02-05T12:20:25.687Z,0.10
2018-02-05T12:22:56.153Z,0.10
2018-02-05T12:25:28.398Z,1.60
2018-02-05T12:28:00.076Z,2.30
2018-02-05T12:30:45.861Z,2.30
2018-02-05T12:33:29.435Z,3.40
2018-02-05T12:36:02.161Z,4.50
2018-02-05T12:38:33.724Z,4.00
2018-02-05T12:41:07.866Z,4.40
2018-02-05T12:43:41.066Z,4.40
2018-02-05T12:46:14.998Z,4.40
2018-02-05T12:48:46.021Z,3.70
2018-02-05T12:51:19.587Z,4.10
2018-02-05T12:53:53.388Z,4.30
2018-02-05T12:56:32.606Z,4.80
2018-02-05T13:02:27.922Z,4.50
2018-02-05T13:04:59.862Z,4.50
2018-02-05T13:07:39.697Z,3.50
2018-02-05T13:10:13.024Z,3.60
2018-02-05T13:13:12.727Z,3.60
2018-02-05T13:19:31.601Z,3.80
2018-02-05T13:22:21.988Z,3.50
2018-02-05T13:25:00.883Z,3.40
2018-02-05T13:27:40.874Z,3.00
2018-02-05T13:30:12.170Z,3.10
2018-02-05T13:32:42.253Z,3.20
2018-02-05T13:35:18.693Z,3.20
2018-02-05T13:37:56.027Z,3.20
2018-02-05T13:40:29.594Z,2.30
2018-02-05T13:43:23.277Z,2.20
2018-02-05T13:45:54.162Z,2.40
2018-02-05T13:48:23.377Z,2.20
2018-02-05T13:50:52.752Z,2.30
2018-02-05T13:53:22.252Z,2.20
2018-02-05T13:55:52.389Z,2.60
2018-02-05T13:58:24.038Z,2.60
2018-02-05T14:00:53.841Z,2.60
2018-02-05T14:03:26.145Z,2.80
2018-02-05T14:05:55.518Z,2.90
2018-02-05T14:08:26.049Z,2.40
2018-02-05T14:10:56.618Z,1.90
2018-02-05T14:13:26.822Z,1.90
2018-02-05T14:15:56.886Z,1.20
2018-02-05T14:18:27.889Z,1.00
2018-02-05T14:20:58.399Z,1.00
2018-02-05T14:23:29.624Z,1.00
2018-02-05T14:26:09.785Z,0.80
2018-02-05T14:28:39.777Z,0.70
2018-02-05T14:31:16.530Z,0.60
2018-02-05T14:33:46.688Z,0.90
2018-02-05T14:36:17.536Z,0.70
2018-02-05T14:39:20.554Z,0.80
2018-02-05T14:41:53.063Z,0.80
2018-02-05T14:44:23.470Z,0.50
2018-02-05T14:50:07.749Z,0.40
2018-02-05T14:52:42.250Z,0.40
2018-02-05T14:55:13.885Z,0.50
2018-02-05T15:00:31.862Z,0.70
2018-02-05T15:03:02.501Z,0.70
2018-02-05T15:05:33.291Z,0.50
2018-02-05T15:08:23.636Z,0.40
2018-02-05T15:10:54.255Z,0.40
2018-02-05T15:13:26.310Z,0.20
2018-02-05T15:15:57.011Z,0.10
2018-02-05T15:18:26.599Z,0.20
2018-02-05T15:20:57.671Z,0.10
2018-02-05T15:23:36.260Z,0.20
2018-02-05T15:26:06.514Z,0.20
2018-02-05T15:28:35.733Z,0.30
2018-02-05T15:31:05.546Z,0.40
2018-02-05T15:33:38.576Z,0.50
2018-02-05T15:36:21.430Z,0.50
2018-02-05T15:39:36.177Z,0.60
2018-02-05T15:42:09.374Z,0.60
2018-02-05T15:48:01.197Z,0.40
2018-02-05T15:50:34.248Z,0.40
2018-02-05T15:53:12.177Z,0.40
2018-02-05T15:55:41.598Z,0.40
2018-02-05T15:58:10.891Z,0.40
2018-02-05T16:00:41.059Z,0.30
2018-02-05T16:03:10.703Z,0.30
2018-02-05T16:05:51.334Z,0.40
2018-02-05T16:08:56.133Z,0.40
2018-02-05T16:11:40.257Z,0.40
2018-02-05T16:17:06.032Z,0.10
2018-02-05T16:19:56.135Z,0.10
2018-02-05T16:22:27.569Z,0.10
2018-02-05T16:24:58.821Z,0.10
2018-02-05T16:27:28.160Z,0.20
2018-02-05T16:30:25.551Z,0.10
2018-02-05T16:32:58.814Z,0.10
2018-02-05T16:35:28.987Z,0.10
2018-02-05T16:38:01.275Z,-0.10
2018-02-05T16:40:44.283Z,-0.10
2018-02-05T16:43:19.163Z,0.10
2018-02-05T16:45:48.843Z,0.30
2018-02-05T16:48:18.487Z,0.40
2018-02-05T16:50:52.855Z,0.30
2018-02-05T16:53:25.741Z,0.30
2018-02-05T16:55:56.227Z,0.40
2018-02-05T16:58:29.019Z,0.20
2018-02-05T17:01:05.052Z,0.20
2018-02-05T17:03:37.268Z,0.00
2018-02-05T17:06:07.108Z,0.00
2018-02-05T17:08:36.912Z,-0.10
2018-02-05T17:11:07.987Z,-0.20
2018-02-05T17:13:40.044Z,-0.30
2018-02-05T17:16:09.720Z,-0.20
2018-02-05T17:18:39.229Z,0.00
2018-02-05T17:21:08.872Z,0.10
2018-02-05T17:23:38.915Z,0.20
2018-02-05T17:26:32.017Z,0.20
2018-02-05T17:29:03.514Z,0.20
2018-02-05T17:31:45.392Z,0.20
2018-02-05T17:37:40.593Z,0.30
2018-02-05T17:40:40.957Z,0.10
2018-02-05T17:43:11.868Z,0.10
2018-02-05T17:45:42.110Z,-0.10
2018-02-05T17:48:20.026Z,0.00
2018-02-05T17:51:02.690Z,-0.10
2018-02-05T17:53:36.294Z,-0.20
2018-02-05T17:56:07.561Z,0.20
2018-02-05T17:58:36.797Z,0.20
2018-02-05T18:01:05.945Z,0.30
2018-02-05T18:03:45.733Z,0.40
2018-02-05T18:06:17.057Z,0.40
2018-02-05T18:08:47.641Z,0.40
2018-02-05T18:11:20.476Z,0.30
2018-02-05T18:13:54.198Z,0.40
2018-02-05T18:16:29.771Z,0.40
2018-02-05T18:19:12.561Z,0.30
2018-02-05T18:22:05.698Z,0.30
2018-02-05T18:24:37.822Z,0.30
2018-02-05T18:30:21.318Z,0.10
2018-02-05T18:32:53.074Z,0.00
2018-02-05T18:35:22.386Z,0.00
2018-02-05T18:37:53.377Z,0.00
2018-02-05T18:40:26.229Z,0.00
2018-02-05T18:43:00.037Z,-0.20
2018-02-05T18:45:30.055Z,-0.50
2018-02-05T18:48:07.350Z,-0.50
2018-02-05T18:51:01.906Z,-0.20
2018-02-05T18:53:36.072Z,-0.10
2018-02-05T18:56:06.221Z,-0.20
2018-02-05T18:58:37.031Z,-0.20
2018-02-05T19:01:07.704Z,-0.10
2018-02-05T19:03:38.899Z,-0.10
2018-02-05T19:06:08.673Z,-0.10
2018-02-05T19:08:39.090Z,0.00
2018-02-05T19:11:09.856Z,0.10
2018-02-05T19:16:50.610Z,0.30
2018-02-05T19:19:27.794Z,0.30
2018-02-05T19:21:59.726Z,0.20
2018-02-05T19:24:40.610Z,0.20
2018-02-05T19:27:20.508Z,0.10
2018-02-05T19:29:54.183Z,-0.10
2018-02-05T19:32:36.040Z,-0.10
2018-02-05T19:35:07.626Z,-0.20
2018-02-05T19:37:38.617Z,-0.10
2018-02-05T19:40:08.592Z,0.00
2018-02-05T19:42:40.015Z,0.00
2018-02-05T19:45:10.871Z,0.00
2018-02-05T19:47:43.185Z,-0.10
2018-02-05T19:50:13.265Z,-0.10
2018-02-05T19:52:44.755Z,-0.20
2018-02-05T19:55:15.214Z,-0.20
2018-02-05T19:57:45.547Z,-0.30
2018-02-05T20:00:15.889Z,-0.20
2018-02-05T20:02:45.792Z,-0.20
2018-02-05T20:05:17.253Z,-0.10
2018-02-05T20:07:54.904Z,-0.10
2018-02-05T20:10:25.377Z,-0.10
2018-02-05T20:12:54.917Z,-0.10
2018-02-05T20:15:25.315Z,-0.10
2018-02-05T20:17:55.055Z,-0.20
2018-02-05T20:20:26.257Z,-0.30
2018-02-05T20:22:56.778Z,-0.30
2018-02-05T20:25:27.485Z,-0.30
2018-02-05T20:27:56.863Z,-0.30
2018-02-05T20:30:27.421Z,-0.30
2018-02-05T20:32:58.495Z,-0.40
2018-02-05T20:35:28.754Z,-0.30
2018-02-05T20:37:59.713Z,-0.50
2018-02-05T20:40:31.608Z,-0.50
2018-02-05T20:43:05.970Z,-0.60
2018-02-05T20:45:35.404Z,-0.50
2018-02-05T20:48:04.821Z,-0.50
2018-02-05T20:50:34.029Z,-0.60
2018-02-05T20:53:09.010Z,-0.50
2018-02-05T20:55:39.211Z,-0.50
2018-02-05T20:58:21.685Z,-0.70
2018-02-05T21:00:54.900Z,-0.70
2018-02-05T21:06:48.270Z,-0.60
2018-02-05T21:09:34.521Z,-0.60
2018-02-05T21:12:14.293Z,-0.60
2018-02-05T21:14:45.826Z,-0.50
2018-02-05T21:17:21.739Z,-0.40
2018-02-05T21:19:58.101Z,-0.40
2018-02-05T21:22:34.056Z,-0.50
2018-02-05T21:25:40.441Z,-0.50
2018-02-05T21:28:11.048Z,-0.50
2018-02-05T21:30:41.101Z,-0.50
2018-02-05T21:33:10.539Z,-0.50
2018-02-05T21:35:48.183Z,-0.50
2018-02-05T21:38:18.594Z,-0.60
2018-02-05T21:40:48.625Z,-0.70
2018-02-05T21:43:20.612Z,-0.70
2018-02-05T21:45:52.911Z,-0.70
2018-02-05T21:48:22.842Z,-0.80
2018-02-05T21:50:52.707Z,-0.80
2018-02-05T21:53:22.314Z,-0.90
2018-02-05T21:55:51.702Z,-1.00
2018-02-05T21:58:21.465Z,-1.00
2018-02-05T22:00:52.977Z,-1.00
2018-02-05T22:03:22.508Z,-1.00
2018-02-05T22:05:53.681Z,-0.90
2018-02-05T22:08:23.875Z,-0.90
2018-02-05T22:10:53.247Z,-0.80
2018-02-05T22:13:25.260Z,-1.00
2018-02-05T22:15:55.008Z,-0.90
2018-02-05T22:18:24.146Z,-1.00
2018-02-05T22:20:53.461Z,-0.90
2018-02-05T22:23:23.205Z,-0.90
2018-02-05T22:25:52.390Z,-0.90
2018-02-05T22:28:22.845Z,-0.90
2018-02-05T22:30:56.191Z,-1.00
2018-02-05T22:33:25.919Z,-1.00
2018-02-05T22:35:55.206Z,-1.10
2018-02-05T22:38:24.688Z,-1.10
2018-02-05T22:40:54.247Z,-1.30
2018-02-05T22:43:23.854Z,-1.20
2018-02-05T22:45:53.574Z,-1.20
2018-02-05T22:48:23.002Z,-1.30
2018-02-05T22:50:52.796Z,-1.30
2018-02-05T22:53:22.322Z,-1.40
2018-02-05T22:55:51.534Z,-1.40
2018-02-05T22:58:20.840Z,-1.40
2018-02-05T23:00:51.713Z,-1.50
2018-02-05T23:03:21.329Z,-1.50
2018-02-05T23:05:50.694Z,-1.60
2018-02-05T23:08:20.583Z,-1.60
2018-02-05T23:10:50.114Z,-1.70
2018-02-05T23:13:19.536Z,-1.70
2018-02-05T23:15:49.154Z,-1.70
2018-02-05T23:18:19.314Z,-1.80
2018-02-05T23:20:49.137Z,-1.80
2018-02-05T23:23:19.721Z,-2.00
2018-02-05T23:25:49.010Z,-2.00
2018-02-05T23:28:18.629Z,-2.00
2018-02-05T23:30:48.770Z,-2.10
2018-02-05T23:33:18.129Z,-2.10
2018-02-05T23:35:47.439Z,-2.10
2018-02-05T23:38:17.715Z,-2.20
2018-02-05T23:40:47.385Z,-2.20
2018-02-05T23:43:16.954Z,-2.20
2018-02-05T23:45:47.695Z,-2.70
2018-02-05T23:48:17.163Z,-2.70
2018-02-05T23:50:47.654Z,-2.90
2018-02-05T23:53:17.738Z,-3.00
2018-02-05T23:55:46.970Z,-2.80
2018-02-05T23:58:16.529Z,-2.70
